Time;durP1;ratioP1;P1;durP2;ratioP2;P2;SDS_P1;SDS_P2;PMS_P1;PMS_P2;Temp;Humidity;BMP_temperature;BMP_pressure;BME280_temperature;BME280_humidity;BME280_pressure;Samples;Min_cycle;Max_cycle;Signal;HPM_P1;HPM_P2
2021/12/02 00:03:56;;;;;;;4.72;2.30;;;;;;;9.12;55.56;98248.63;7711016;32;37557;-75
2021/12/02 00:08:12;;;;;;;5.35;2.55;;;;;;;9.06;55.80;98254.50;7710985;32;37078;-75
2021/12/02 00:12:28;;;;;;;4.03;2.42;;;;;;;9.16;56.47;98246.16;7711202;32;39245;-74
2021/12/02 00:21:26;;;;;;;4.10;2.20;;;;;;;9.15;56.88;98247.25;7710740;32;37872;-75
2021/12/02 00:25:43;;;;;;;4.40;1.90;;;;;;;9.01;58.69;98253.47;7709611;32;37952;-75
2021/12/02 00:30:00;;;;;;;2.78;1.85;;;;;;;9.35;58.10;98255.03;7709517;32;39096;-75
2021/12/02 00:34:17;;;;;;;26.80;8.80;;;;;;;9.05;60.29;98258.31;7710658;32;40818;-75
2021/12/02 00:38:33;;;;;;;4.82;2.58;;;;;;;9.34;58.78;98256.13;7710414;32;37599;-75
2021/12/02 00:42:51;;;;;;;7.68;2.30;;;;;;;9.51;60.20;98262.91;7710260;32;37143;-75
2021/12/02 00:47:09;;;;;;;2.25;2.05;;;;;;;9.67;59.36;98263.37;7710384;32;38412;-75
2021/12/02 00:51:26;;;;;;;4.32;2.25;;;;;;;9.83;58.75;98258.44;7710250;32;39807;-75
2021/12/02 00:55:44;;;;;;;5.00;2.20;;;;;;;9.63;57.41;98260.47;7710764;32;37912;-75
2021/12/02 01:00:03;;;;;;;4.68;2.67;;;;;;;9.87;56.96;98252.09;7713329;32;37736;-75
2021/12/02 01:04:23;;;;;;;3.83;2.37;;;;;;;9.80;56.80;98253.63;7713333;32;39390;-75
2021/12/02 01:08:40;;;;;;;3.40;2.20;;;;;;;9.95;57.09;98256.00;7713146;32;39842;-75
2021/12/02 01:12:57;;;;;;;4.30;2.28;;;;;;;9.65;56.47;98258.25;7713154;32;37891;-75
2021/12/02 01:17:13;;;;;;;3.55;2.30;;;;;;;9.51;58.31;98257.47;7713159;32;37796;-75
2021/12/02 01:21:30;;;;;;;2.58;2.20;;;;;;;9.54;57.57;98256.84;7713124;32;40267;-75
2021/12/02 01:25:52;;;;;;;7.37;2.62;;;;;;;9.25;59.02;98260.66;7712921;32;40803;-75
2021/12/02 01:30:09;;;;;;;4.60;2.40;;;;;;;9.47;57.76;98261.88;7712937;32;37742;-75
2021/12/02 01:34:27;;;;;;;4.60;2.95;;;;;;;9.49;58.79;98260.47;7712984;32;36833;-75
2021/12/02 01:38:43;;;;;;;2.35;2.15;;;;;;;9.92;58.54;98251.19;7712986;32;39084;-75
2021/12/02 01:43:00;;;;;;;4.40;2.33;;;;;;;9.83;58.82;98242.09;7712758;32;40737;-75
2021/12/02 01:47:16;;;;;;;3.42;2.30;;;;;;;9.73;57.61;98248.59;7712665;32;37863;-75
2021/12/02 01:51:41;;;;;;;7.25;2.72;;;;;;;9.95;55.92;98234.22;7711542;32;37396;-75
2021/12/02 01:56:09;;;;;;;5.20;2.55;;;;;;;9.78;56.11;98221.25;7711658;32;40160;-75
2021/12/02 02:00:33;;;;;;;4.43;2.42;;;;;;;9.76;55.87;98243.34;7711638;32;39771;-75
2021/12/02 02:04:50;;;;;;;3.85;2.47;;;;;;;9.19;58.00;98229.22;7712547;32;38758;-75
2021/12/02 02:09:08;;;;;;;3.53;2.15;;;;;;;9.35;57.84;98232.47;7711055;32;37027;-75
2021/12/02 02:13:24;;;;;;;3.65;2.15;;;;;;;9.31;58.83;98235.00;7712577;32;39464;-75
2021/12/02 02:22:26;;;;;;;4.82;2.58;;;;;;;9.47;57.95;98235.50;7710915;32;37815;-75
2021/12/02 02:26:43;;;;;;;4.10;2.20;;;;;;;9.08;59.36;98225.09;7712314;32;37088;-74
2021/12/02 02:30:59;;;;;;;3.45;2.15;;;;;;;9.55;58.01;98225.81;7711044;32;40232;-75
2021/12/02 02:35:15;;;;;;;3.80;2.00;;;;;;;9.75;57.04;98217.22;7712187;32;40706;-75
2021/12/02 02:39:34;;;;;;;3.75;2.30;;;;;;;9.65;57.37;98211.19;7712198;32;37883;-75
2021/12/02 02:43:52;;;;;;;3.12;2.10;;;;;;;9.80;57.44;98216.31;7712176;32;36123;-75
2021/12/02 02:48:09;;;;;;;2.10;1.90;;;;;;;9.79;57.51;98214.69;7712199;32;39427;-75
2021/12/02 02:52:31;;;;;;;2.00;1.90;;;;;;;9.50;59.76;98225.91;7710866;32;39676;-75
2021/12/02 02:56:56;;;;;;;5.93;2.50;;;;;;;9.16;61.16;98229.84;7710785;32;37558;-75
2021/12/02 03:05:41;;;;;;;2.35;2.10;;;;;;;8.72;64.03;98233.88;7710652;32;39062;-75
2021/12/02 03:14:52;;;;;;;3.53;2.22;;;;;;;9.43;62.57;98250.00;7711631;32;38543;-75
2021/12/02 03:19:04;;;;;;;3.87;2.22;;;;;;;9.44;63.29;98251.62;7711064;32;37329;-75
2021/12/02 03:23:20;;;;;;;2.60;2.00;;;;;;;9.67;62.50;98253.31;7711618;32;39284;-75
2021/12/02 03:27:37;;;;;;;3.08;2.22;;;;;;;9.69;62.29;98259.28;7711687;32;40010;-75
2021/12/02 03:31:53;;;;;;;3.10;2.00;;;;;;;9.64;61.84;98256.66;7711532;32;38599;-75
2021/12/02 03:36:10;;;;;;;2.67;2.30;;;;;;;9.69;61.53;98253.00;7711627;32;36976;-75
2021/12/02 03:40:27;;;;;;;6.85;2.50;;;;;;;9.74;60.39;98255.63;7711548;32;38043;-75
2021/12/02 03:44:43;;;;;;;3.10;1.92;;;;;;;9.52;60.16;98242.72;7711344;32;39689;-75
2021/12/02 03:48:59;;;;;;;2.62;2.08;;;;;;;9.36;60.86;98240.31;7711438;32;37653;-75
2021/12/02 03:53:15;;;;;;;2.10;1.90;;;;;;;9.81;59.99;98222.56;7711307;32;37052;-76
2021/12/02 03:57:32;;;;;;;6.78;2.12;;;;;;;9.84;59.92;98221.97;7711195;32;39392;-75
2021/12/02 04:01:48;;;;;;;3.97;2.30;;;;;;;9.56;60.47;98222.78;7711108;32;39880;-75
2021/12/02 04:06:07;;;;;;;2.10;1.90;;;;;;;9.56;60.71;98213.81;7711018;32;37928;-75
2021/12/02 04:10:24;;;;;;;3.92;2.10;;;;;;;9.70;60.04;98201.00;7710970;32;38275;-75
2021/12/02 04:14:47;;;;;;;3.85;2.03;;;;;;;9.94;59.32;98189.88;7711136;32;40025;-74
2021/12/02 04:19:05;;;;;;;3.72;2.00;;;;;;;10.00;59.65;98198.72;7710960;32;39955;-75
2021/12/02 04:23:27;;;;;;;4.25;2.00;;;;;;;9.91;60.63;98203.28;7710734;32;37692;-75
2021/12/02 04:27:44;;;;;;;3.92;2.10;;;;;;;9.97;60.75;98215.69;7710825;32;36745;-75
2021/12/02 04:32:00;;;;;;;2.30;1.90;;;;;;;9.76;61.23;98231.63;7709338;32;40076;-75
2021/12/02 04:36:16;;;;;;;4.12;2.00;;;;;;;9.83;60.86;98228.50;7710539;32;39988;-75
2021/12/02 04:40:32;;;;;;;3.62;2.15;;;;;;;10.08;59.51;98227.94;7710298;32;37730;-75
2021/12/02 04:44:48;;;;;;;2.25;1.90;;;;;;;9.96;60.33;98230.41;7710235;32;37953;-75
2021/12/02 04:49:04;;;;;;;3.30;1.95;;;;;;;10.00;60.36;98236.81;7710264;32;39168;-75
2021/12/02 04:53:21;;;;;;;3.10;2.12;;;;;;;10.10;60.47;98225.72;7710223;32;39721;-75
2021/12/02 04:57:38;;;;;;;2.37;2.00;;;;;;;10.11;60.32;98212.94;7709969;32;38788;-75
2021/12/02 05:01:54;;;;;;;5.80;2.28;;;;;;;9.99;60.58;98218.91;7709908;32;37808;-75
2021/12/02 05:06:10;;;;;;;2.40;2.10;;;;;;;9.94;60.67;98227.19;7709791;32;39224;-75
2021/12/02 05:10:26;;;;;;;4.87;2.47;;;;;;;9.48;62.11;98233.56;7709542;32;40711;-75
2021/12/02 05:14:43;;;;;;;2.60;2.25;;;;;;;9.30;63.08;98236.09;7709524;32;37810;-75
2021/12/02 05:19:00;;;;;;;2.92;2.40;;;;;;;9.39;62.64;98233.47;7709576;32;37062;-75
2021/12/02 05:23:16;;;;;;;3.28;2.25;;;;;;;9.47;62.35;98229.22;7709409;32;39370;-75
2021/12/02 05:27:33;;;;;;;3.70;2.37;;;;;;;9.48;62.25;98236.28;7709245;32;40741;-75
2021/12/02 05:31:49;;;;;;;6.53;3.00;;;;;;;9.51;61.71;98239.22;7709161;32;37931;-75
2021/12/02 05:36:05;;;;;;;3.83;2.72;;;;;;;8.93;63.81;98259.56;7709149;32;36864;-75
2021/12/02 05:40:21;;;;;;;3.85;2.42;;;;;;;9.13;63.02;98263.84;7709022;32;39000;-75
2021/12/02 05:44:37;;;;;;;3.70;2.62;;;;;;;9.17;62.62;98255.91;7712262;32;39821;-75
2021/12/02 05:48:56;;;;;;;4.53;2.83;;;;;;;9.11;62.25;98248.97;7712887;32;38669;-75
2021/12/02 05:53:13;;;;;;;6.70;2.75;;;;;;;9.02;62.79;98255.09;7712757;32;37102;-75
2021/12/02 05:57:31;;;;;;;4.72;3.10;;;;;;;8.94;62.86;98254.97;7712767;32;39933;-75
2021/12/02 06:01:47;;;;;;;5.37;2.70;;;;;;;9.18;61.83;98252.09;7712567;32;39720;-75
2021/12/02 06:06:05;;;;;;;6.40;3.10;;;;;;;8.80;63.46;98250.28;7711174;32;37844;-75
2021/12/02 06:10:21;;;;;;;3.95;3.15;;;;;;;8.46;64.68;98258.72;7711238;32;37324;-75
2021/12/02 06:14:37;;;;;;;7.07;3.85;;;;;;;8.55;64.28;98259.66;7712551;32;40039;-75
2021/12/02 06:18:53;;;;;;;6.05;3.90;;;;;;;8.55;64.28;98243.34;7712456;32;39634;-75
2021/12/02 06:23:09;;;;;;;8.20;3.87;;;;;;;8.70;63.83;98238.78;7712353;32;37751;-75
2021/12/02 06:27:25;;;;;;;7.22;3.60;;;;;;;8.60;64.11;98248.72;7712262;32;37053;-75
2021/12/02 06:31:42;;;;;;;7.35;3.53;;;;;;;8.44;64.83;98250.88;7712535;32;39416;-74
2021/12/02 06:35:58;;;;;;;5.87;3.60;;;;;;;8.67;64.11;98251.06;7712166;32;39966;-75
2021/12/02 06:40:15;;;;;;;5.55;3.83;;;;;;;8.74;63.72;98253.38;7712128;32;38628;-74
2021/12/02 06:44:32;;;;;;;8.45;4.22;;;;;;;8.70;64.17;98255.91;7712063;32;37089;-74
2021/12/02 06:48:49;;;;;;;7.62;3.20;;;;;;;8.76;63.90;98262.03;7712013;32;40114;-75
2021/12/02 06:53:06;;;;;;;5.57;3.60;;;;;;;8.55;64.72;98275.16;7711135;32;40619;-75
2021/12/02 06:57:23;;;;;;;5.57;3.83;;;;;;;8.73;64.13;98266.19;7711891;32;37724;-75
2021/12/02 07:01:39;;;;;;;9.23;3.87;;;;;;;8.74;64.01;98261.53;7711912;32;37044;-75
2021/12/02 07:05:56;;;;;;;10.32;4.50;;;;;;;8.62;64.24;98270.16;7711840;32;39363;-75
2021/12/02 07:10:20;;;;;;;8.30;4.93;;;;;;;8.60;64.36;98259.56;7711604;32;39905;-75
2021/12/02 07:14:36;;;;;;;6.22;4.05;;;;;;;8.46;65.18;98259.53;7712150;32;36850;-75
2021/12/02 07:18:56;;;;;;;7.87;4.10;;;;;;;8.28;65.59;98269.28;7711798;32;37052;-75
2021/12/02 07:23:13;;;;;;;10.15;4.68;;;;;;;8.61;64.70;98266.62;7711485;32;39335;-73
2021/12/02 07:27:29;;;;;;;10.82;4.32;;;;;;;8.55;65.03;98275.94;7711417;32;40001;-76
2021/12/02 07:31:47;;;;;;;9.20;4.50;;;;;;;8.84;64.28;98273.03;7711412;32;37799;-74
2021/12/02 07:36:04;;;;;;;6.68;4.20;;;;;;;8.98;63.47;98262.22;7711964;32;36040;-74
2021/12/02 07:40:22;;;;;;;11.40;4.47;;;;;;;8.79;64.21;98264.97;7711493;32;39468;-74
2021/12/02 07:44:38;;;;;;;7.95;4.57;;;;;;;8.78;64.22;98259.84;7711267;32;41516;-74
2021/12/02 07:48:55;;;;;;;10.45;6.32;;;;;;;8.41;66.00;98291.34;7710805;32;37785;-75
2021/12/02 07:53:11;;;;;;;10.57;6.20;;;;;;;8.27;66.64;98285.84;7710227;32;36995;-75
2021/12/02 07:57:27;;;;;;;9.85;4.62;;;;;;;8.78;64.97;98289.75;7710147;32;39795;-76
2021/12/02 08:01:44;;;;;;;9.57;5.05;;;;;;;8.71;65.64;98290.12;7711197;32;39926;-76
2021/12/02 08:06:01;;;;;;;10.65;4.90;;;;;;;8.76;64.80;98297.38;7710719;32;37828;-75
2021/12/02 08:10:18;;;;;;;7.60;4.43;;;;;;;8.92;64.30;98298.75;7710724;32;37133;-75
2021/12/02 08:14:34;;;;;;;8.07;4.75;;;;;;;8.98;64.48;98304.91;7710812;32;39320;-75
2021/12/02 08:18:50;;;;;;;6.82;4.40;;;;;;;8.83;64.89;98316.84;7710896;32;39856;-76
2021/12/02 08:23:09;;;;;;;8.38;5.10;;;;;;;8.99;64.48;98307.31;7710815;32;37717;-74
2021/12/02 08:27:25;;;;;;;11.27;5.40;;;;;;;8.64;66.50;98308.69;7710627;32;36711;-74
2021/12/02 08:31:41;;;;;;;10.30;6.03;;;;;;;8.90;65.18;98322.69;7709777;32;39771;-76
2021/12/02 08:35:57;;;;;;;10.60;5.72;;;;;;;8.99;64.96;98334.50;7710483;32;40816;-76
2021/12/02 08:40:18;;;;;;;14.13;7.82;;;;;;;9.15;64.35;98336.97;7709946;32;37914;-76
2021/12/02 08:44:37;;;;;;;11.90;7.18;;;;;;;8.99;65.11;98345.38;7719208;32;37775;-76
2021/12/02 08:48:54;;;;;;;14.75;7.47;;;;;;;8.87;65.71;98341.50;7714503;32;40088;-75
2021/12/02 08:53:10;;;;;;;11.32;6.80;;;;;;;8.69;66.48;98351.28;7710080;32;39963;-75
2021/12/02 08:57:26;;;;;;;6.12;3.83;;;;;;;8.90;65.99;98347.16;7709959;32;37821;-75
2021/12/02 09:01:43;;;;;;;6.97;3.80;;;;;;;9.03;65.63;98346.37;7709883;32;37934;-75
2021/12/02 09:06:00;;;;;;;7.05;3.53;;;;;;;9.12;65.14;98351.16;7709862;32;39138;-74
2021/12/02 09:10:16;;;;;;;19.60;12.60;;;;;;;9.26;64.83;98349.31;7709235;32;39959;-74
2021/12/02 09:14:32;;;;;;;12.48;6.25;;;;;;;8.80;66.99;98371.78;7709406;32;38111;-75
2021/12/02 09:18:48;;;;;;;11.30;5.15;;;;;;;9.14;65.10;98366.09;7708356;32;37213;-75
2021/12/02 09:23:04;;;;;;;14.18;4.90;;;;;;;8.93;66.13;98371.00;7710616;32;39383;-75
2021/12/02 09:27:21;;;;;;;8.48;4.30;;;;;;;9.09;65.76;98379.75;7712173;32;39954;-75
2021/12/02 09:31:37;;;;;;;8.98;4.18;;;;;;;8.88;66.95;98353.97;7709718;32;37465;-75
2021/12/02 09:35:53;;;;;;;7.50;3.72;;;;;;;9.01;66.67;98353.25;7708382;32;36881;-75
2021/12/02 09:40:12;;;;;;;7.12;4.28;;;;;;;9.30;65.66;98347.59;7708487;32;39041;-75
2021/12/02 09:44:29;;;;;;;7.95;4.55;;;;;;;9.31;65.64;98343.78;7711753;32;40080;-75
2021/12/02 09:48:46;;;;;;;6.93;4.53;;;;;;;9.35;65.42;98342.06;7711459;32;37964;-75
2021/12/02 09:53:51;;;;;;;8.80;4.97;;;;;;;9.52;64.70;98329.78;7712973;32;37179;-76
2021/12/02 09:57:45;;;;;;;6.93;4.50;;;;;;;9.63;64.14;98314.88;7707674;32;39767;-75
2021/12/02 10:02:05;;;;;;;10.00;4.65;;;;;;;9.32;65.06;98310.00;7712692;32;40613;-75
2021/12/02 10:06:27;;;;;;;11.90;7.65;;;;;;;9.59;64.43;98311.19;7712580;32;37809;-75
2021/12/02 10:11:06;;;;;;;12.65;6.55;;;;;;;9.38;65.26;98310.72;7711329;32;37072;-75
2021/12/02 10:15:22;;;;;;;36.38;19.15;;;;;;;9.15;66.44;98304.34;7711494;32;39320;-75
2021/12/02 10:19:59;;;;;;;10.30;6.57;;;;;;;9.35;66.39;98301.25;7712274;32;39893;-76
2021/12/02 10:24:23;;;;;;;13.45;7.07;;;;;;;9.53;64.95;98290.59;7711218;32;38645;-76
2021/12/02 10:28:43;;;;;;;11.38;6.80;;;;;;;8.92;66.98;98279.72;7712328;32;37959;-75
2021/12/02 10:32:59;;;;;;;14.05;7.30;;;;;;;9.08;66.70;98282.19;7711240;32;39922;-77
2021/12/02 10:37:19;;;;;;;12.43;7.60;;;;;;;9.23;66.58;98273.75;7712323;32;39980;-75
2021/12/02 10:41:36;;;;;;;11.88;6.53;;;;;;;9.23;66.66;98276.47;7712107;32;37932;-74
2021/12/02 10:45:52;;;;;;;7.20;4.22;;;;;;;9.32;66.57;98269.22;7712067;32;37244;-75
2021/12/02 10:50:10;;;;;;;14.85;7.40;;;;;;;9.46;66.42;98266.50;7711810;32;39473;-76
2021/12/02 10:54:29;;;;;;;7.50;3.85;;;;;;;9.42;66.51;98257.34;7711955;32;41552;-75
2021/12/02 10:58:46;;;;;;;8.50;4.95;;;;;;;9.50;66.20;98256.66;7711305;32;37879;-75
2021/12/02 11:03:09;;;;;;;5.87;3.20;;;;;;;9.67;65.31;98258.75;7710864;32;37872;-75
2021/12/02 11:07:28;;;;;;;16.62;9.82;;;;;;;9.80;65.32;98259.06;7709258;32;38998;-76
2021/12/02 11:11:44;;;;;;;16.35;9.45;;;;;;;9.42;66.95;98251.09;7709357;32;40670;-76
2021/12/02 11:16:01;;;;;;;16.35;8.82;;;;;;;9.30;66.79;98252.41;7710294;32;37805;-75
2021/12/02 11:20:41;;;;;;;15.07;8.45;;;;;;;9.65;66.10;98258.25;7710046;32;37759;-75
2021/12/02 11:24:59;;;;;;;11.05;7.65;;;;;;;9.89;65.28;98251.78;7708220;32;40918;-75
2021/12/02 11:29:15;;;;;;;13.15;7.00;;;;;;;9.80;65.77;98248.19;7711649;32;40539;-75
2021/12/02 11:33:35;;;;;;;7.72;4.82;;;;;;;9.75;66.35;98241.72;7711614;32;37563;-75
2021/12/02 11:38:06;;;;;;;7.35;3.85;;;;;;;9.69;66.33;98233.97;7711606;32;37033;-76
2021/12/02 11:42:23;;;;;;;6.53;3.50;;;;;;;9.84;65.60;98228.19;7711263;32;39336;-76
2021/12/02 11:46:39;;;;;;;3.65;2.87;;;;;;;9.94;64.81;98233.41;7711400;32;39687;-76
2021/12/02 11:50:58;;;;;;;5.93;3.00;;;;;;;9.91;64.84;98227.78;7711264;32;37768;-75
2021/12/02 11:55:27;;;;;;;5.07;3.20;;;;;;;9.91;64.78;98225.06;7711485;32;38109;-75
2021/12/02 11:59:44;;;;;;;5.47;2.90;;;;;;;9.94;64.34;98221.72;7711414;32;40120;-75
2021/12/02 12:04:08;;;;;;;4.28;2.45;;;;;;;10.08;63.95;98213.53;7711422;32;40564;-76
2021/12/02 12:08:45;;;;;;;3.47;2.40;;;;;;;9.96;63.55;98209.41;7709755;32;38737;-75
2021/12/02 12:13:23;;;;;;;2.45;2.08;;;;;;;9.93;64.25;98203.78;7711147;32;36771;-76
2021/12/02 12:17:40;;;;;;;2.15;1.90;;;;;;;9.89;64.04;98200.06;7711159;32;39123;-76
2021/12/02 12:22:04;;;;;;;2.22;1.80;;;;;;;9.89;63.31;98202.78;7710896;32;40867;-75
2021/12/02 12:26:21;;;;;;;2.20;1.80;;;;;;;9.98;63.91;98206.38;7709598;32;37904;-75
2021/12/02 12:30:37;;;;;;;2.60;1.75;;;;;;;9.74;65.18;98204.75;7710836;32;38426;-76
2021/12/02 12:35:03;;;;;;;1.60;1.50;;;;;;;9.89;65.03;98202.78;7710674;32;38941;-75
2021/12/02 12:39:22;;;;;;;2.08;1.80;;;;;;;10.04;64.60;98186.13;7709460;32;39806;-76
2021/12/02 12:43:53;;;;;;;1.80;1.70;;;;;;;9.89;65.33;98181.00;7710056;32;38689;-76
2021/12/02 12:48:24;;;;;;;2.08;1.80;;;;;;;10.06;64.75;98181.16;7709127;32;36774;-76
2021/12/02 12:52:41;;;;;;;1.90;1.60;;;;;;;9.83;65.32;98179.50;7709782;32;40075;-77
2021/12/02 12:57:05;;;;;;;3.62;2.40;;;;;;;9.81;65.46;98179.81;7713225;32;39753;-76
2021/12/02 13:01:24;;;;;;;5.10;2.85;;;;;;;10.00;65.05;98176.94;7713382;32;37764;-75
2021/12/02 13:06:00;;;;;;;6.35;3.53;;;;;;;9.81;65.74;98189.91;7712868;32;37886;-75
2021/12/02 13:10:23;;;;;;;9.38;4.30;;;;;;;9.81;65.65;98179.81;7713132;32;39381;-76
2021/12/02 13:14:41;;;;;;;;;;;;;;;9.78;65.84;98169.56;7713572;32;40822;-75
2021/12/02 13:19:14;;;;;;;9.07;6.22;;;;;;;9.84;65.73;98178.41;7713254;32;38821;-76
2021/12/02 13:23:32;;;;;;;11.43;7.00;;;;;;;9.69;66.02;98172.19;7713237;32;37397;-76
2021/12/02 13:27:49;;;;;;;9.85;6.07;;;;;;;9.71;65.85;98158.25;7713032;32;39242;-76
2021/12/02 13:32:10;;;;;;;11.45;7.10;;;;;;;9.67;65.91;98160.78;7713055;32;39775;-75
2021/12/02 13:36:35;;;;;;;13.23;7.00;;;;;;;9.71;65.76;98175.41;7712946;32;38612;-78
2021/12/02 13:40:51;;;;;;;14.15;6.00;;;;;;;9.65;65.76;98184.78;7712923;32;37127;-77
2021/12/02 13:45:16;;;;;;;22.60;8.18;;;;;;;9.80;64.91;98182.84;7712915;32;39354;-77
2021/12/02 13:49:37;;;;;;;14.40;7.30;;;;;;;9.13;66.80;98197.81;7711700;32;40018;-76
2021/12/02 13:53:54;;;;;;;14.57;7.15;;;;;;;9.28;66.13;98194.78;7712911;32;37783;-77
2021/12/02 14:02:33;;;;;;;17.87;10.27;;;;;;;9.08;67.01;98200.63;7712366;32;39429;-78
2021/12/02 14:07:08;;;;;;;19.80;11.30;;;;;;;9.05;67.40;98196.59;7712196;32;38745;-77
2021/12/02 14:11:24;;;;;;;24.00;14.52;;;;;;;9.30;66.34;98195.28;7712453;32;37882;-78
2021/12/02 14:15:45;;;;;;;26.12;14.30;;;;;;;9.15;66.77;98201.03;7712416;32;37994;-78
2021/12/02 14:20:10;;;;;;;23.83;14.20;;;;;;;9.35;65.97;98200.63;7712501;32;39530;-77
2021/12/02 14:24:27;;;;;;;21.85;13.20;;;;;;;9.35;65.64;98200.63;7712279;32;40045;-78
2021/12/02 14:28:50;;;;;;;18.05;12.37;;;;;;;9.37;65.72;98190.25;7710962;32;37935;-78
2021/12/02 14:33:07;;;;;;;;;;;;;;;9.28;66.17;98183.91;7712637;32;37203;-79
2021/12/02 14:37:27;;;;;;;17.40;10.95;;;;;;;8.99;67.03;98179.56;7712536;32;39618;-80
2021/12/02 14:41:45;;;;;;;15.15;10.38;;;;;;;9.26;66.11;98186.13;7712093;32;40584;-78
2021/12/02 14:46:21;;;;;;;15.07;10.00;;;;;;;9.35;65.69;98192.47;7711927;32;37841;-80
2021/12/02 14:50:37;;;;;;;18.37;11.02;;;;;;;9.38;65.51;98186.44;7710849;32;38239;-80
2021/12/02 14:55:08;;;;;;;21.58;13.32;;;;;;;8.76;67.58;98188.69;7712049;32;39302;-80
2021/12/02 14:59:24;;;;;;;22.27;12.30;;;;;;;8.95;66.95;98197.59;7726930;32;40017;-81
2021/12/02 15:04:17;;;;;;;22.70;12.82;;;;;;;9.13;66.33;98192.38;7737295;32;37904;-80
2021/12/02 15:08:34;;;;;;;126.95;16.60;;;;;;;9.23;65.73;98192.19;7737653;32;36999;-80
2021/12/02 15:12:52;;;;;;;117.47;17.65;;;;;;;9.19;65.92;98199.31;7737654;32;39091;-80
2021/12/02 15:17:11;;;;;;;210.48;18.45;;;;;;;9.07;66.09;98199.00;7737287;32;39956;-80
2021/12/02 15:21:34;;;;;;;30.27;13.23;;;;;;;9.03;66.34;98202.31;7737268;32;37872;-83
2021/12/02 15:26:11;;;;;;;23.80;12.35;;;;;;;8.98;66.52;98202.41;7738126;32;37230;-84
2021/12/02 15:30:31;;;;;;;14.85;10.02;;;;;;;9.18;65.90;98198.50;7737607;32;39349;-85
2021/12/02 15:34:47;;;;;;;15.25;9.15;;;;;;;8.96;66.12;98187.53;7737836;32;39612;-86
2021/12/02 15:39:06;;;;;;;17.80;9.70;;;;;;;8.98;66.20;98198.88;7737560;32;38432;-87
2021/12/02 15:43:56;;;;;;;10.93;6.95;;;;;;;8.91;66.34;98185.69;7732118;32;37758;-86
2021/12/02 15:48:13;;;;;;;11.82;6.95;;;;;;;9.17;65.17;98190.66;7720055;32;40195;-86
2021/12/02 15:52:32;;;;;;;18.02;10.77;;;;;;;9.15;65.17;98190.16;7721647;32;39864;-85
2021/12/02 15:56:49;;;;;;;18.37;11.73;;;;;;;9.24;64.53;98177.47;7714871;32;245456;-85
2021/12/02 16:01:11;;;;;;;21.87;12.37;;;;;;;9.32;64.07;98173.25;7719494;32;37658;-85
2021/12/02 16:05:56;;;;;;;18.87;10.85;;;;;;;9.02;64.98;98168.09;7710498;32;39411;-85
2021/12/02 16:14:31;;;;;;;10.68;6.20;;;;;;;8.92;65.39;98162.84;7737234;32;38832;-85
2021/12/02 16:18:47;;;;;;;10.85;6.03;;;;;;;8.92;65.01;98165.56;7737081;32;37036;-86
2021/12/02 16:23:03;;;;;;;14.55;8.57;;;;;;;8.76;65.95;98183.25;7737112;32;39898;-85
2021/12/02 16:27:21;;;;;;;14.23;8.25;;;;;;;8.58;66.59;98187.66;7736798;32;39900;-86
2021/12/02 16:31:37;;;;;;;14.15;8.20;;;;;;;8.69;66.22;98193.69;7736622;32;37505;-86
2021/12/02 16:35:54;;;;;;;17.52;8.43;;;;;;;8.53;66.69;98201.31;7736981;32;36839;-83
2021/12/02 16:40:22;;;;;;;12.48;6.60;;;;;;;8.62;66.39;98204.94;7750832;32;40008;-85
2021/12/02 16:44:38;;;;;;;14.32;8.40;;;;;;;8.53;66.62;98209.47;7749789;32;39982;-85
2021/12/02 16:48:54;;;;;;;14.60;8.00;;;;;;;8.59;66.28;98221.88;7756157;32;38633;-85
2021/12/02 16:53:11;;;;;;;13.88;8.07;;;;;;;8.84;65.45;98213.25;7736580;32;37885;-82
2021/12/02 16:57:27;;;;;;;20.27;11.50;;;;;;;8.73;65.56;98224.63;7736495;32;39063;-84
2021/12/02 17:01:43;;;;;;;17.77;10.57;;;;;;;8.71;65.71;98221.38;7736178;32;40491;-81
2021/12/02 17:06:00;;;;;;;15.35;9.05;;;;;;;8.74;65.58;98223.50;7738714;32;37919;-81
2021/12/02 17:10:25;;;;;;;14.82;8.55;;;;;;;8.64;65.73;98235.34;7735847;32;37051;-84
2021/12/02 17:14:41;;;;;;;13.15;6.95;;;;;;;8.59;65.92;98221.88;7736241;32;39986;-84
2021/12/02 17:18:57;;;;;;;12.20;7.10;;;;;;;8.43;66.60;98226.72;7735944;32;39880;-84
2021/12/02 17:23:14;;;;;;;14.93;7.28;;;;;;;8.78;65.46;98227.25;7736026;32;37778;-82
2021/12/02 17:27:31;;;;;;;18.95;12.23;;;;;;;8.65;65.80;98226.91;7735891;32;36932;-82
2021/12/02 17:31:48;;;;;;;18.15;11.57;;;;;;;8.60;65.77;98237.03;7734875;32;39230;-84
2021/12/02 17:36:04;;;;;;;17.27;10.82;;;;;;;8.58;66.25;98231.91;7708695;32;40503;-83
2021/12/02 17:40:25;;;;;;;14.30;9.20;;;;;;;8.70;65.87;98228.72;7711533;32;38730;-84
2021/12/02 17:44:44;;;;;;;14.00;8.63;;;;;;;8.72;65.66;98233.88;7712580;32;37354;-83
2021/12/02 17:49:06;;;;;;;11.80;7.20;;;;;;;8.55;66.11;98234.41;7714199;32;40153;-82
2021/12/02 17:53:22;;;;;;;13.07;7.32;;;;;;;8.43;66.44;98229.44;7718920;32;40124;-84
2021/12/02 17:57:45;;;;;;;12.13;6.70;;;;;;;8.40;66.44;98224.56;7727408;32;37882;-84
2021/12/02 18:02:08;;;;;;;17.20;10.48;;;;;;;8.62;65.62;98211.22;7732002;32;38679;-85
2021/12/02 18:06:24;;;;;;;23.23;12.95;;;;;;;8.81;64.85;98213.88;7738944;32;39257;-85
2021/12/02 18:10:41;;;;;;;19.25;11.85;;;;;;;8.71;64.91;98202.34;7738643;32;39759;-84
2021/12/02 18:15:00;;;;;;;17.15;10.00;;;;;;;8.58;65.24;98193.88;7738732;32;36846;-83
2021/12/02 18:19:17;;;;;;;15.00;8.70;;;;;;;8.59;64.97;98189.28;7738787;32;37339;-85
2021/12/02 18:23:33;;;;;;;14.85;8.82;;;;;;;8.60;64.94;98178.06;7738819;32;39449;-83
2021/12/02 18:27:51;;;;;;;19.45;11.93;;;;;;;8.64;64.52;98173.69;7738548;32;40718;-84
2021/12/02 18:32:08;;;;;;;17.33;9.50;;;;;;;8.45;65.38;98175.62;7738348;32;37902;-84
2021/12/02 18:36:27;;;;;;;39.33;21.05;;;;;;;8.68;64.46;98168.47;7738219;32;38088;-85
2021/12/02 18:40:43;;;;;;;32.28;17.65;;;;;;;8.57;64.43;98169.72;7737641;32;39386;-84
2021/12/02 18:45:09;;;;;;;26.35;14.40;;;;;;;8.30;65.26;98154.16;7739090;32;39703;-85
2021/12/02 18:49:25;;;;;;;51.47;21.90;;;;;;;8.31;65.35;98144.88;7737685;32;38716;-85
2021/12/02 18:53:41;;;;;;;15.77;9.38;;;;;;;8.20;65.86;98139.63;7738903;32;36900;-84
2021/12/02 18:57:58;;;;;;;18.17;9.50;;;;;;;8.35;65.41;98135.84;7738856;32;39275;-84
2021/12/02 19:02:19;;;;;;;12.80;7.00;;;;;;;8.25;65.64;98133.31;7738649;32;40712;-84
2021/12/02 19:29:16;;;;;;;56.88;18.15;;;;;;;8.31;65.31;98158.47;7711815;32;37184;-82
2021/12/02 19:33:35;;;;;;;63.28;18.77;;;;;;;8.40;65.21;98159.38;7711777;32;40091;-77
2021/12/02 19:37:53;;;;;;;116.85;19.05;;;;;;;8.46;65.18;98155.53;7710408;32;40927;-81
2021/12/02 19:42:10;;;;;;;117.53;20.25;;;;;;;8.24;65.99;98167.81;7711427;32;38145;-80
2021/12/02 19:46:29;;;;;;;89.65;22.33;;;;;;;8.35;65.83;98156.78;7685644;32;38158;-81
2021/12/02 19:50:45;;;;;;;115.97;26.87;;;;;;;8.36;65.82;98163.81;7683568;32;39023;-81
2021/12/02 19:55:03;;;;;;;109.72;29.52;;;;;;;8.14;67.00;98159.81;7684631;32;40024;-81
2021/12/02 19:59:19;;;;;;;136.65;31.27;;;;;;;8.20;67.01;98160.53;7684511;32;37859;-81
2021/12/02 20:03:39;;;;;;;233.73;31.40;;;;;;;8.07;67.71;98167.50;7684036;32;36975;-81
2021/12/02 20:07:55;;;;;;;278.20;31.90;;;;;;;8.16;67.30;98157.59;7691453;32;39039;-81
2021/12/02 20:12:12;;;;;;;55.55;24.23;;;;;;;8.30;66.79;98154.94;7710932;32;39967;-82
2021/12/02 20:16:33;;;;;;;202.38;25.83;;;;;;;8.29;66.87;98153.31;7709691;32;38606;-82
2021/12/02 20:20:50;;;;;;;391.77;32.13;;;;;;;8.28;67.23;98171.53;7710968;32;37529;-82
2021/12/02 20:25:07;;;;;;;215.87;25.27;;;;;;;7.95;68.47;98180.72;7709646;32;39223;-81
2021/12/02 20:29:24;;;;;;;120.15;21.60;;;;;;;7.96;68.27;98183.16;7710489;32;40009;-81
2021/12/02 20:33:41;;;;;;;93.57;22.75;;;;;;;8.04;68.02;98179.78;7710595;32;37946;-80
2021/12/02 20:37:57;;;;;;;57.85;21.33;;;;;;;8.02;67.77;98175.72;7710569;32;38363;-81
2021/12/02 20:42:14;;;;;;;107.60;21.87;;;;;;;8.15;67.16;98183.12;7710422;32;40058;-80
2021/12/02 20:46:33;;;;;;;59.08;18.25;;;;;;;8.27;66.63;98194.34;7710762;32;40932;-80
2021/12/02 20:50:50;;;;;;;55.90;20.73;;;;;;;8.06;67.29;98203.91;7710210;32;37987;-80
2021/12/02 20:55:13;;;;;;;69.68;20.65;;;;;;;7.92;68.42;98208.44;7710248;32;37175;-81
2021/12/02 20:59:30;;;;;;;43.83;21.30;;;;;;;7.78;68.79;98211.91;7710215;32;38252;-80
2021/12/02 21:03:47;;;;;;;62.15;22.00;;;;;;;8.21;67.21;98206.41;7710379;32;37957;-82
2021/12/02 21:08:06;;;;;;;35.65;20.12;;;;;;;8.28;66.76;98198.69;7717059;32;38856;-81
2021/12/02 21:12:22;;;;;;;44.25;22.37;;;;;;;8.06;67.33;98209.34;7734981;32;37007;-82
2021/12/02 21:16:41;;;;;;;38.42;21.10;;;;;;;8.40;66.36;98202.81;7739834;32;40069;-82